Aviation Digital Data Service (ADDS)

Output produced by TAFs form (1422 UTC 16 July 2018)
found at http://www.aviationweather.gov/adds/tafs/
 
METAR text: ZSAM 161400Z 04006MPS 9999 BKN040 BKN060 30/24 Q1004 NOSIG
Conditions at: ZSAM (XIAMEN , CN) observed 1400 UTC 16 July 2018
Temperature: 30.0°C (86°F)
Dewpoint: 24.0°C (75°F) [RH = 70%]
Pressure (altimeter): 29.65 inches Hg (1004.0 mb)
Winds: from the NE (40 degrees) at 14 MPH (12 knots; 6.2 m/s)
Visibility: 6 or more miles (10+ km)
Ceiling: 4000 feet AGL
Clouds: broken clouds at 4000 feet AGL
broken clouds at 6000 feet AGL
Weather: no significant weather observed at this time

Forecast for: ZSAM (XIAMEN , CN)
Text: TAF ZSAM 160903Z 1612/1712 05006G12MPS 8000 SCT030 TX34/1706Z TN28/1621Z
Forecast period: 1200 UTC 16 July 2018 to 1200 UTC 17 July 2018
Forecast type: FROM: standard forecast or significant change
Winds: from the NE (50 degrees) at 14 MPH (12 knots; 6.2 m/s)
gusting to 26 MPH (23 knots; 12.0 m/s)
Visibility: 5 miles (8 km)
Clouds: scattered clouds at 3000 feet AGL
Weather: no significant weather forecast for this period